sensor_id;sensor_type;location;lat;lon;timestamp;temperature;humidity
63371;DHT22;49504;48.336;14.472;2023-04-03T00:03:02;25.20;47.00
63371;DHT22;49504;48.336;14.472;2023-04-03T00:06:25;25.20;47.00
63371;DHT22;49504;48.336;14.472;2023-04-03T00:09:46;25.20;47.00
63371;DHT22;49504;48.336;14.472;2023-04-03T00:13:08;25.20;47.00
63371;DHT22;49504;48.336;14.472;2023-04-03T00:16:29;25.20;47.00
63371;DHT22;49504;48.336;14.472;2023-04-03T00:19:50;25.20;47.00
63371;DHT22;49504;48.336;14.472;2023-04-03T00:23:13;25.20;47.00
63371;DHT22;49504;48.336;14.472;2023-04-03T00:26:34;25.20;47.00
63371;DHT22;49504;48.336;14.472;2023-04-03T00:29:55;25.20;47.00
63371;DHT22;49504;48.336;14.472;2023-04-03T00:33:16;25.20;47.00
63371;DHT22;49504;48.336;14.472;2023-04-03T00:36:38;25.20;47.00
63371;DHT22;49504;48.336;14.472;2023-04-03T00:40:00;25.20;47.00
63371;DHT22;49504;48.336;14.472;2023-04-03T00:43:24;25.20;47.00
63371;DHT22;49504;48.336;14.472;2023-04-03T00:46:46;25.20;47.00
63371;DHT22;49504;48.336;14.472;2023-04-03T00:50:08;25.20;47.00
63371;DHT22;49504;48.336;14.472;2023-04-03T00:53:32;25.20;47.00
63371;DHT22;49504;48.336;14.472;2023-04-03T00:56:56;25.20;47.00
63371;DHT22;49504;48.336;14.472;2023-04-03T01:00:20;25.20;47.00
63371;DHT22;49504;48.336;14.472;2023-04-03T01:04:43;25.20;46.40
63371;DHT22;49504;48.336;14.472;2023-04-03T01:08:05;25.20;47.00
63371;DHT22;49504;48.336;14.472;2023-04-03T01:11:28;25.20;47.00
63371;DHT22;49504;48.336;14.472;2023-04-03T01:14:51;25.20;47.00
63371;DHT22;49504;48.336;14.472;2023-04-03T01:18:13;25.20;47.00
63371;DHT22;49504;48.336;14.472;2023-04-03T01:22:09;25.20;47.00
63371;DHT22;49504;48.336;14.472;2023-04-03T01:25:39;25.20;47.00
63371;DHT22;49504;48.336;14.472;2023-04-03T01:29:02;25.20;47.00
63371;DHT22;49504;48.336;14.472;2023-04-03T01:32:25;25.20;47.00
63371;DHT22;49504;48.336;14.472;2023-04-03T01:35:46;25.20;47.00
63371;DHT22;49504;48.336;14.472;2023-04-03T01:39:07;25.20;47.00
63371;DHT22;49504;48.336;14.472;2023-04-03T01:42:29;25.20;47.00
63371;DHT22;49504;48.336;14.472;2023-04-03T01:45:50;25.20;47.00
63371;DHT22;49504;48.336;14.472;2023-04-03T01:49:13;25.20;47.00
63371;DHT22;49504;48.336;14.472;2023-04-03T01:52:34;25.20;47.00
63371;DHT22;49504;48.336;14.472;2023-04-03T01:55:55;25.20;47.00
63371;DHT22;49504;48.336;14.472;2023-04-03T01:59:17;25.20;47.00
63371;DHT22;49504;48.336;14.472;2023-04-03T02:02:39;25.20;47.00
63371;DHT22;49504;48.336;14.472;2023-04-03T02:06:01;25.20;47.00
63371;DHT22;49504;48.336;14.472;2023-04-03T02:09:23;25.20;47.00
63371;DHT22;49504;48.336;14.472;2023-04-03T02:12:44;25.20;46.90
63371;DHT22;49504;48.336;14.472;2023-04-03T02:16:09;25.20;47.00
63371;DHT22;49504;48.336;14.472;2023-04-03T02:19:30;25.20;46.90
63371;DHT22;49504;48.336;14.472;2023-04-03T02:22:53;25.10;46.80
63371;DHT22;49504;48.336;14.472;2023-04-03T02:26:15;25.20;46.90
63371;DHT22;49504;48.336;14.472;2023-04-03T02:29:39;25.20;46.80
63371;DHT22;49504;48.336;14.472;2023-04-03T02:33:00;25.20;46.90
63371;DHT22;49504;48.336;14.472;2023-04-03T02:36:22;25.10;46.80
63371;DHT22;49504;48.336;14.472;2023-04-03T02:39:49;25.20;46.80
63371;DHT22;49504;48.336;14.472;2023-04-03T02:43:10;25.20;46.90
63371;DHT22;49504;48.336;14.472;2023-04-03T02:46:32;25.20;47.00
63371;DHT22;49504;48.336;14.472;2023-04-03T02:49:54;25.10;46.80
63371;DHT22;49504;48.336;14.472;2023-04-03T02:53:15;25.10;46.80
63371;DHT22;49504;48.336;14.472;2023-04-03T02:56:37;25.10;46.80
63371;DHT22;49504;48.336;14.472;2023-04-03T02:59:59;25.10;46.90
63371;DHT22;49504;48.336;14.472;2023-04-03T03:03:20;25.10;46.90
63371;DHT22;49504;48.336;14.472;2023-04-03T03:06:41;25.20;46.80
63371;DHT22;49504;48.336;14.472;2023-04-03T03:10:03;25.10;46.90
63371;DHT22;49504;48.336;14.472;2023-04-03T03:13:26;25.20;47.00
63371;DHT22;49504;48.336;14.472;2023-04-03T03:16:47;25.10;46.90
63371;DHT22;49504;48.336;14.472;2023-04-03T03:20:09;25.20;47.00
63371;DHT22;49504;48.336;14.472;2023-04-03T03:23:32;25.10;46.90
63371;DHT22;49504;48.336;14.472;2023-04-03T03:26:53;25.20;47.00
63371;DHT22;49504;48.336;14.472;2023-04-03T03:30:16;25.20;47.00
63371;DHT22;49504;48.336;14.472;2023-04-03T03:33:37;25.20;46.90
63371;DHT22;49504;48.336;14.472;2023-04-03T03:36:58;25.10;46.90
63371;DHT22;49504;48.336;14.472;2023-04-03T03:40:19;25.20;46.80
63371;DHT22;49504;48.336;14.472;2023-04-03T03:43:40;25.20;46.80
63371;DHT22;49504;48.336;14.472;2023-04-03T03:47:04;25.20;46.80
63371;DHT22;49504;48.336;14.472;2023-04-03T03:50:25;25.20;46.60
63371;DHT22;49504;48.336;14.472;2023-04-03T03:53:46;25.20;46.50
63371;DHT22;49504;48.336;14.472;2023-04-03T03:57:11;25.20;46.60
63371;DHT22;49504;48.336;14.472;2023-04-03T04:00:32;25.20;46.50
63371;DHT22;49504;48.336;14.472;2023-04-03T04:03:56;25.20;46.50
63371;DHT22;49504;48.336;14.472;2023-04-03T04:07:21;25.20;46.70
63371;DHT22;49504;48.336;14.472;2023-04-03T04:10:43;25.20;46.70
63371;DHT22;49504;48.336;14.472;2023-04-03T04:14:06;25.20;46.70
63371;DHT22;49504;48.336;14.472;2023-04-03T04:17:28;25.20;46.60
63371;DHT22;49504;48.336;14.472;2023-04-03T04:20:51;25.20;46.50
63371;DHT22;49504;48.336;14.472;2023-04-03T04:24:13;25.20;46.30
63371;DHT22;49504;48.336;14.472;2023-04-03T04:27:34;25.20;46.00
63371;DHT22;49504;48.336;14.472;2023-04-03T04:30:56;25.20;46.10
63371;DHT22;49504;48.336;14.472;2023-04-03T04:34:20;25.20;46.00
63371;DHT22;49504;48.336;14.472;2023-04-03T04:37:43;25.10;46.00
63371;DHT22;49504;48.336;14.472;2023-04-03T04:41:05;25.20;45.90
63371;DHT22;49504;48.336;14.472;2023-04-03T04:44:27;25.20;45.90
63371;DHT22;49504;48.336;14.472;2023-04-03T04:47:48;25.20;45.90
63371;DHT22;49504;48.336;14.472;2023-04-03T04:51:10;25.20;45.90
63371;DHT22;49504;48.336;14.472;2023-04-03T04:54:34;25.20;46.00
63371;DHT22;49504;48.336;14.472;2023-04-03T04:57:55;25.20;45.90
63371;DHT22;49504;48.336;14.472;2023-04-03T05:01:17;25.20;45.70
63371;DHT22;49504;48.336;14.472;2023-04-03T05:04:49;25.20;45.50
63371;DHT22;49504;48.336;14.472;2023-04-03T05:08:17;25.20;45.70
63371;DHT22;49504;48.336;14.472;2023-04-03T05:11:39;25.20;45.60
63371;DHT22;49504;48.336;14.472;2023-04-03T05:15:02;25.20;45.50
63371;DHT22;49504;48.336;14.472;2023-04-03T05:18:26;25.20;45.80
63371;DHT22;49504;48.336;14.472;2023-04-03T05:21:50;25.20;45.70
63371;DHT22;49504;48.336;14.472;2023-04-03T05:25:13;25.20;45.60
63371;DHT22;49504;48.336;14.472;2023-04-03T05:28:39;25.20;45.60
63371;DHT22;49504;48.336;14.472;2023-04-03T05:32:02;25.10;45.60
63371;DHT22;49504;48.336;14.472;2023-04-03T05:35:24;25.20;45.60
63371;DHT22;49504;48.336;14.472;2023-04-03T05:39:23;25.20;45.20
63371;DHT22;49504;48.336;14.472;2023-04-03T05:42:45;25.20;45.80
63371;DHT22;49504;48.336;14.472;2023-04-03T05:46:10;25.20;45.90
63371;DHT22;49504;48.336;14.472;2023-04-03T05:49:32;25.20;46.10
63371;DHT22;49504;48.336;14.472;2023-04-03T05:52:56;25.20;46.10
63371;DHT22;49504;48.336;14.472;2023-04-03T05:56:22;25.20;46.20
63371;DHT22;49504;48.336;14.472;2023-04-03T05:59:44;25.20;46.10
63371;DHT22;49504;48.336;14.472;2023-04-03T06:03:06;25.20;46.00
63371;DHT22;49504;48.336;14.472;2023-04-03T06:06:43;25.20;46.20
63371;DHT22;49504;48.336;14.472;2023-04-03T06:10:07;25.20;46.00
63371;DHT22;49504;48.336;14.472;2023-04-03T06:13:30;25.20;46.00
63371;DHT22;49504;48.336;14.472;2023-04-03T06:16:51;25.20;46.10
63371;DHT22;49504;48.336;14.472;2023-04-03T06:20:12;25.20;46.00
63371;DHT22;49504;48.336;14.472;2023-04-03T06:23:34;25.20;46.10
63371;DHT22;49504;48.336;14.472;2023-04-03T06:26:55;25.20;46.30
63371;DHT22;49504;48.336;14.472;2023-04-03T06:30:18;25.20;46.30
63371;DHT22;49504;48.336;14.472;2023-04-03T06:33:39;25.20;46.30
63371;DHT22;49504;48.336;14.472;2023-04-03T06:37:00;25.20;46.30
63371;DHT22;49504;48.336;14.472;2023-04-03T06:40:24;25.20;46.20
63371;DHT22;49504;48.336;14.472;2023-04-03T06:43:45;25.20;46.20
63371;DHT22;49504;48.336;14.472;2023-04-03T06:47:09;25.20;46.30
63371;DHT22;49504;48.336;14.472;2023-04-03T06:50:32;25.20;47.00
63371;DHT22;49504;48.336;14.472;2023-04-03T06:53:55;25.20;46.10
63371;DHT22;49504;48.336;14.472;2023-04-03T06:57:16;25.20;46.00
63371;DHT22;49504;48.336;14.472;2023-04-03T07:00:38;25.20;45.90
63371;DHT22;49504;48.336;14.472;2023-04-03T07:04:00;25.20;45.90
63371;DHT22;49504;48.336;14.472;2023-04-03T07:07:21;25.20;46.50
63371;DHT22;49504;48.336;14.472;2023-04-03T07:10:42;25.20;45.80
63371;DHT22;49504;48.336;14.472;2023-04-03T07:14:03;25.20;45.80
63371;DHT22;49504;48.336;14.472;2023-04-03T07:17:25;25.20;45.80
63371;DHT22;49504;48.336;14.472;2023-04-03T07:20:47;25.20;45.80
63371;DHT22;49504;48.336;14.472;2023-04-03T07:24:08;25.20;45.80
63371;DHT22;49504;48.336;14.472;2023-04-03T07:27:29;25.20;45.80
63371;DHT22;49504;48.336;14.472;2023-04-03T07:30:52;25.20;45.70
63371;DHT22;49504;48.336;14.472;2023-04-03T07:34:15;25.20;45.70
63371;DHT22;49504;48.336;14.472;2023-04-03T07:37:37;25.20;45.70
63371;DHT22;49504;48.336;14.472;2023-04-03T07:40:58;25.20;45.70
63371;DHT22;49504;48.336;14.472;2023-04-03T07:44:19;25.20;45.70
63371;DHT22;49504;48.336;14.472;2023-04-03T07:47:40;25.20;45.70
63371;DHT22;49504;48.336;14.472;2023-04-03T07:51:03;25.20;45.70
63371;DHT22;49504;48.336;14.472;2023-04-03T07:54:25;25.20;45.60
63371;DHT22;49504;48.336;14.472;2023-04-03T07:57:47;25.20;45.70
63371;DHT22;49504;48.336;14.472;2023-04-03T08:04:32;25.20;45.10
63371;DHT22;49504;48.336;14.472;2023-04-03T08:07:53;25.20;45.60
63371;DHT22;49504;48.336;14.472;2023-04-03T08:11:14;25.20;45.50
63371;DHT22;49504;48.336;14.472;2023-04-03T08:14:35;25.20;45.50
63371;DHT22;49504;48.336;14.472;2023-04-03T08:17:57;25.20;45.50
63371;DHT22;49504;48.336;14.472;2023-04-03T08:21:20;25.20;45.50
63371;DHT22;49504;48.336;14.472;2023-04-03T08:24:41;25.20;45.50
63371;DHT22;49504;48.336;14.472;2023-04-03T08:28:02;25.10;45.40
63371;DHT22;49504;48.336;14.472;2023-04-03T08:31:23;25.10;45.40
63371;DHT22;49504;48.336;14.472;2023-04-03T08:34:45;25.20;45.40
63371;DHT22;49504;48.336;14.472;2023-04-03T08:38:07;25.20;45.40
63371;DHT22;49504;48.336;14.472;2023-04-03T08:41:31;25.20;45.40
63371;DHT22;49504;48.336;14.472;2023-04-03T08:44:59;25.20;45.40
63371;DHT22;49504;48.336;14.472;2023-04-03T08:48:25;25.20;45.40
63371;DHT22;49504;48.336;14.472;2023-04-03T08:51:49;25.20;45.40
63371;DHT22;49504;48.336;14.472;2023-04-03T08:55:22;25.20;45.40
63371;DHT22;49504;48.336;14.472;2023-04-03T08:58:49;25.20;45.40
63371;DHT22;49504;48.336;14.472;2023-04-03T09:02:23;25.20;45.40
63371;DHT22;49504;48.336;14.472;2023-04-03T09:05:49;25.20;45.40
63371;DHT22;49504;48.336;14.472;2023-04-03T09:09:14;25.10;45.30
63371;DHT22;49504;48.336;14.472;2023-04-03T09:12:43;25.20;45.30
63371;DHT22;49504;48.336;14.472;2023-04-03T09:16:19;25.10;45.30
63371;DHT22;49504;48.336;14.472;2023-04-03T09:19:50;25.20;45.30
63371;DHT22;49504;48.336;14.472;2023-04-03T09:23:19;25.10;45.10
63371;DHT22;49504;48.336;14.472;2023-04-03T09:26:46;25.10;45.10
63371;DHT22;49504;48.336;14.472;2023-04-03T09:30:15;25.20;44.80
63371;DHT22;49504;48.336;14.472;2023-04-03T09:33:37;25.20;45.50
63371;DHT22;49504;48.336;14.472;2023-04-03T09:37:01;25.10;44.80
63371;DHT22;49504;48.336;14.472;2023-04-03T09:40:35;25.10;44.40
63371;DHT22;49504;48.336;14.472;2023-04-03T09:43:56;25.10;44.60
63371;DHT22;49504;48.336;14.472;2023-04-03T09:47:24;25.10;44.40
63371;DHT22;49504;48.336;14.472;2023-04-03T09:50:55;25.10;44.70
63371;DHT22;49504;48.336;14.472;2023-04-03T09:54:30;25.10;44.70
63371;DHT22;49504;48.336;14.472;2023-04-03T09:57:52;25.10;44.60
63371;DHT22;49504;48.336;14.472;2023-04-03T10:01:24;25.10;44.60
63371;DHT22;49504;48.336;14.472;2023-04-03T10:04:49;25.10;44.70
63371;DHT22;49504;48.336;14.472;2023-04-03T10:08:20;25.10;44.80
63371;DHT22;49504;48.336;14.472;2023-04-03T10:12:01;25.10;44.80
63371;DHT22;49504;48.336;14.472;2023-04-03T10:15:33;25.20;44.90
63371;DHT22;49504;48.336;14.472;2023-04-03T10:19:06;25.10;44.90
63371;DHT22;49504;48.336;14.472;2023-04-03T10:22:44;25.10;45.00
63371;DHT22;49504;48.336;14.472;2023-04-03T10:26:21;25.10;45.00
63371;DHT22;49504;48.336;14.472;2023-04-03T10:29:53;25.10;44.90
63371;DHT22;49504;48.336;14.472;2023-04-03T10:33:23;25.20;45.60
63371;DHT22;49504;48.336;14.472;2023-04-03T10:36:56;25.20;45.00
63371;DHT22;49504;48.336;14.472;2023-04-03T10:40:29;25.20;44.70
63371;DHT22;49504;48.336;14.472;2023-04-03T10:43:59;25.20;44.50
63371;DHT22;49504;48.336;14.472;2023-04-03T10:47:34;25.20;44.70
63371;DHT22;49504;48.336;14.472;2023-04-03T10:54:38;25.20;44.40
63371;DHT22;49504;48.336;14.472;2023-04-03T10:58:01;25.30;45.00
63371;DHT22;49504;48.336;14.472;2023-04-03T11:01:26;25.20;44.90
63371;DHT22;49504;48.336;14.472;2023-04-03T11:04:53;25.20;44.90
63371;DHT22;49504;48.336;14.472;2023-04-03T11:08:26;25.20;44.90
63371;DHT22;49504;48.336;14.472;2023-04-03T11:11:53;25.30;44.70
63371;DHT22;49504;48.336;14.472;2023-04-03T11:15:19;25.30;44.80
63371;DHT22;49504;48.336;14.472;2023-04-03T11:18:44;25.30;45.00
63371;DHT22;49504;48.336;14.472;2023-04-03T11:22:13;25.30;45.10
63371;DHT22;49504;48.336;14.472;2023-04-03T11:25:43;25.30;45.10
63371;DHT22;49504;48.336;14.472;2023-04-03T11:29:09;25.30;45.00
63371;DHT22;49504;48.336;14.472;2023-04-03T11:32:56;25.30;44.80
63371;DHT22;49504;48.336;14.472;2023-04-03T11:36:28;25.30;44.70
63371;DHT22;49504;48.336;14.472;2023-04-03T11:39:54;25.30;44.50
63371;DHT22;49504;48.336;14.472;2023-04-03T11:43:23;25.30;44.30
63371;DHT22;49504;48.336;14.472;2023-04-03T11:46:54;25.30;44.20
63371;DHT22;49504;48.336;14.472;2023-04-03T11:50:43;25.30;44.20
63371;DHT22;49504;48.336;14.472;2023-04-03T11:58:13;25.30;44.20
63371;DHT22;49504;48.336;14.472;2023-04-03T12:01:45;25.30;44.20
63371;DHT22;49504;48.336;14.472;2023-04-03T12:05:29;25.30;44.20
63371;DHT22;49504;48.336;14.472;2023-04-03T12:08:53;25.30;44.30
63371;DHT22;49504;48.336;14.472;2023-04-03T12:12:28;25.30;44.40
63371;DHT22;49504;48.336;14.472;2023-04-03T12:15:58;25.40;45.10
63371;DHT22;49504;48.336;14.472;2023-04-03T12:19:36;25.40;46.80
63371;DHT22;49504;48.336;14.472;2023-04-03T12:23:22;25.40;47.20
63371;DHT22;49504;48.336;14.472;2023-04-03T12:26:47;25.40;47.70
63371;DHT22;49504;48.336;14.472;2023-04-03T12:30:16;25.50;47.80
63371;DHT22;49504;48.336;14.472;2023-04-03T12:34:01;25.50;47.90
63371;DHT22;49504;48.336;14.472;2023-04-03T12:37:43;25.50;47.60
63371;DHT22;49504;48.336;14.472;2023-04-03T12:41:23;25.50;47.40
63371;DHT22;49504;48.336;14.472;2023-04-03T12:44:56;25.60;48.10
63371;DHT22;49504;48.336;14.472;2023-04-03T12:48:25;25.50;48.20
63371;DHT22;49504;48.336;14.472;2023-04-03T12:51:47;25.60;48.80
63371;DHT22;49504;48.336;14.472;2023-04-03T12:55:15;25.60;49.20
63371;DHT22;49504;48.336;14.472;2023-04-03T12:58:38;25.60;49.20
63371;DHT22;49504;48.336;14.472;2023-04-03T13:02:00;25.60;49.70
63371;DHT22;49504;48.336;14.472;2023-04-03T13:05:23;25.60;50.00
63371;DHT22;49504;48.336;14.472;2023-04-03T13:08:49;25.60;50.20
63371;DHT22;49504;48.336;14.472;2023-04-03T13:12:13;25.70;49.90
63371;DHT22;49504;48.336;14.472;2023-04-03T13:15:44;25.60;49.30
63371;DHT22;49504;48.336;14.472;2023-04-03T13:19:14;25.60;48.80
63371;DHT22;49504;48.336;14.472;2023-04-03T13:22:40;25.60;48.30
63371;DHT22;49504;48.336;14.472;2023-04-03T13:26:06;25.60;48.10
63371;DHT22;49504;48.336;14.472;2023-04-03T13:29:30;25.60;47.50
63371;DHT22;49504;48.336;14.472;2023-04-03T13:32:54;25.60;47.10
63371;DHT22;49504;48.336;14.472;2023-04-03T13:36:19;25.60;47.00
63371;DHT22;49504;48.336;14.472;2023-04-03T13:39:41;25.60;47.00
63371;DHT22;49504;48.336;14.472;2023-04-03T13:43:06;25.50;46.80
63371;DHT22;49504;48.336;14.472;2023-04-03T13:46:37;25.50;46.70
63371;DHT22;49504;48.336;14.472;2023-04-03T13:50:02;25.50;46.60
63371;DHT22;49504;48.336;14.472;2023-04-03T13:53:26;25.60;46.50
63371;DHT22;49504;48.336;14.472;2023-04-03T13:56:53;25.50;46.40
63371;DHT22;49504;48.336;14.472;2023-04-03T14:00:37;25.50;46.30
63371;DHT22;49504;48.336;14.472;2023-04-03T14:04:01;25.50;46.20
63371;DHT22;49504;48.336;14.472;2023-04-03T14:07:31;25.50;46.10
63371;DHT22;49504;48.336;14.472;2023-04-03T14:10:53;25.50;45.60
63371;DHT22;49504;48.336;14.472;2023-04-03T14:14:16;25.50;45.60
63371;DHT22;49504;48.336;14.472;2023-04-03T14:17:39;25.50;45.60
63371;DHT22;49504;48.336;14.472;2023-04-03T14:21:00;25.50;45.40
63371;DHT22;49504;48.336;14.472;2023-04-03T14:24:23;25.50;45.40
63371;DHT22;49504;48.336;14.472;2023-04-03T14:27:47;25.50;45.30
63371;DHT22;49504;48.336;14.472;2023-04-03T17:00:52;25.70;44.80
63371;DHT22;49504;48.336;14.472;2023-04-03T17:04:13;25.70;44.50
63371;DHT22;49504;48.336;14.472;2023-04-03T17:07:35;25.70;44.50
63371;DHT22;49504;48.336;14.472;2023-04-03T17:10:56;25.70;44.60
63371;DHT22;49504;48.336;14.472;2023-04-03T17:14:17;25.70;44.60
63371;DHT22;49504;48.336;14.472;2023-04-03T17:17:39;25.60;44.50
63371;DHT22;49504;48.336;14.472;2023-04-03T17:21:01;25.60;44.50
63371;DHT22;49504;48.336;14.472;2023-04-03T17:24:22;25.60;44.60
63371;DHT22;49504;48.336;14.472;2023-04-03T17:27:43;25.60;44.60
63371;DHT22;49504;48.336;14.472;2023-04-03T17:31:07;25.60;44.60
63371;DHT22;49504;48.336;14.472;2023-04-03T17:34:30;25.60;44.70
63371;DHT22;49504;48.336;14.472;2023-04-03T17:37:51;25.60;45.40
63371;DHT22;49504;48.336;14.472;2023-04-03T17:41:12;25.60;44.80
63371;DHT22;49504;48.336;14.472;2023-04-03T17:44:33;25.50;44.60
63371;DHT22;49504;48.336;14.472;2023-04-03T17:47:54;25.60;44.70
63371;DHT22;49504;48.336;14.472;2023-04-03T17:51:19;25.60;44.80
63371;DHT22;49504;48.336;14.472;2023-04-03T17:54:41;25.50;44.70
63371;DHT22;49504;48.336;14.472;2023-04-03T17:58:02;25.50;45.50
63371;DHT22;49504;48.336;14.472;2023-04-03T18:01:26;25.60;44.90
63371;DHT22;49504;48.336;14.472;2023-04-03T18:04:50;25.60;44.90
63371;DHT22;49504;48.336;14.472;2023-04-03T18:08:12;25.60;44.90
63371;DHT22;49504;48.336;14.472;2023-04-03T18:11:34;25.50;44.80
63371;DHT22;49504;48.336;14.472;2023-04-03T18:14:57;25.50;44.90
63371;DHT22;49504;48.336;14.472;2023-04-03T18:18:18;25.50;44.90
63371;DHT22;49504;48.336;14.472;2023-04-03T18:21:40;25.60;45.10
63371;DHT22;49504;48.336;14.472;2023-04-03T18:25:03;25.50;45.00
63371;DHT22;49504;48.336;14.472;2023-04-03T18:28:25;25.50;45.00
63371;DHT22;49504;48.336;14.472;2023-04-03T18:31:49;25.50;45.00
63371;DHT22;49504;48.336;14.472;2023-04-03T18:35:11;25.50;45.00
63371;DHT22;49504;48.336;14.472;2023-04-03T18:38:32;25.50;45.00
63371;DHT22;49504;48.336;14.472;2023-04-03T18:44:31;25.50;44.50
63371;DHT22;49504;48.336;14.472;2023-04-03T18:47:53;25.50;45.20
63371;DHT22;49504;48.336;14.472;2023-04-03T18:51:14;25.50;45.30
63371;DHT22;49504;48.336;14.472;2023-04-03T18:54:35;25.50;45.30
63371;DHT22;49504;48.336;14.472;2023-04-03T18:57:57;25.50;45.40
63371;DHT22;49504;48.336;14.472;2023-04-03T19:01:20;25.50;45.40
63371;DHT22;49504;48.336;14.472;2023-04-03T19:04:41;25.50;45.50
63371;DHT22;49504;48.336;14.472;2023-04-03T19:08:02;25.50;45.40
63371;DHT22;49504;48.336;14.472;2023-04-03T19:11:24;25.50;45.40
63371;DHT22;49504;48.336;14.472;2023-04-03T19:14:45;25.50;45.50
63371;DHT22;49504;48.336;14.472;2023-04-03T19:21:08;25.50;44.70
63371;DHT22;49504;48.336;14.472;2023-04-03T19:24:29;25.50;45.40
63371;DHT22;49504;48.336;14.472;2023-04-03T19:27:50;25.50;45.30
63371;DHT22;49504;48.336;14.472;2023-04-03T19:31:12;25.50;45.40
63371;DHT22;49504;48.336;14.472;2023-04-03T19:34:34;25.50;45.30
63371;DHT22;49504;48.336;14.472;2023-04-03T19:37:57;25.50;45.30
63371;DHT22;49504;48.336;14.472;2023-04-03T19:41:20;25.50;45.30
63371;DHT22;49504;48.336;14.472;2023-04-03T19:44:42;25.60;45.50
63371;DHT22;49504;48.336;14.472;2023-04-03T19:48:03;25.50;45.40
63371;DHT22;49504;48.336;14.472;2023-04-03T19:51:25;25.50;45.30
63371;DHT22;49504;48.336;14.472;2023-04-03T19:54:47;25.50;45.00
63371;DHT22;49504;48.336;14.472;2023-04-03T19:58:09;25.50;45.10
63371;DHT22;49504;48.336;14.472;2023-04-03T20:01:31;25.50;45.10
63371;DHT22;49504;48.336;14.472;2023-04-03T20:04:52;25.50;45.00
63371;DHT22;49504;48.336;14.472;2023-04-03T20:08:13;25.50;44.90
63371;DHT22;49504;48.336;14.472;2023-04-03T20:11:36;25.50;45.00
63371;DHT22;49504;48.336;14.472;2023-04-03T20:14:58;25.50;45.00
63371;DHT22;49504;48.336;14.472;2023-04-03T20:18:19;25.50;45.00
63371;DHT22;49504;48.336;14.472;2023-04-03T20:21:40;25.50;45.00
63371;DHT22;49504;48.336;14.472;2023-04-03T20:25:02;25.50;45.00
63371;DHT22;49504;48.336;14.472;2023-04-03T20:28:26;25.50;45.10
63371;DHT22;49504;48.336;14.472;2023-04-03T20:31:47;25.50;45.00
63371;DHT22;49504;48.336;14.472;2023-04-03T20:35:08;25.50;44.90
63371;DHT22;49504;48.336;14.472;2023-04-03T20:39:38;25.50;44.30
63371;DHT22;49504;48.336;14.472;2023-04-03T20:42:59;25.50;44.80
63371;DHT22;49504;48.336;14.472;2023-04-03T20:46:20;25.50;44.70
63371;DHT22;49504;48.336;14.472;2023-04-03T20:49:41;25.50;44.60
63371;DHT22;49504;48.336;14.472;2023-04-03T20:53:03;25.50;44.60
63371;DHT22;49504;48.336;14.472;2023-04-03T20:56:28;25.50;44.50
63371;DHT22;49504;48.336;14.472;2023-04-03T20:59:51;25.50;44.60
63371;DHT22;49504;48.336;14.472;2023-04-03T21:03:12;25.50;44.50
63371;DHT22;49504;48.336;14.472;2023-04-03T21:19:29;25.50;44.40
63371;DHT22;49504;48.336;14.472;2023-04-03T21:22:50;25.50;44.40
63371;DHT22;49504;48.336;14.472;2023-04-03T21:26:11;25.50;44.50
63371;DHT22;49504;48.336;14.472;2023-04-03T21:29:32;25.50;44.50
63371;DHT22;49504;48.336;14.472;2023-04-03T21:32:53;25.50;44.50
63371;DHT22;49504;48.336;14.472;2023-04-03T21:36:15;25.50;44.50
63371;DHT22;49504;48.336;14.472;2023-04-03T21:39:36;25.50;44.60
63371;DHT22;49504;48.336;14.472;2023-04-03T21:42:57;25.50;44.60
63371;DHT22;49504;48.336;14.472;2023-04-03T21:46:19;25.40;44.60
63371;DHT22;49504;48.336;14.472;2023-04-03T21:49:40;25.50;44.70
63371;DHT22;49504;48.336;14.472;2023-04-03T21:53:02;25.50;44.70
63371;DHT22;49504;48.336;14.472;2023-04-03T21:56:23;25.50;44.70
63371;DHT22;49504;48.336;14.472;2023-04-03T21:59:44;25.50;44.70
63371;DHT22;49504;48.336;14.472;2023-04-03T22:03:05;25.50;44.70
63371;DHT22;49504;48.336;14.472;2023-04-03T22:06:27;25.50;44.70
63371;DHT22;49504;48.336;14.472;2023-04-03T22:09:50;25.50;44.70
63371;DHT22;49504;48.336;14.472;2023-04-03T22:13:12;25.50;44.80
63371;DHT22;49504;48.336;14.472;2023-04-03T22:16:33;25.50;44.80
63371;DHT22;49504;48.336;14.472;2023-04-03T22:19:54;25.50;44.70
63371;DHT22;49504;48.336;14.472;2023-04-03T22:23:15;25.50;44.90
63371;DHT22;49504;48.336;14.472;2023-04-03T22:26:37;25.50;44.90
63371;DHT22;49504;48.336;14.472;2023-04-03T22:29:58;25.50;44.90
63371;DHT22;49504;48.336;14.472;2023-04-03T22:33:19;25.50;44.90
63371;DHT22;49504;48.336;14.472;2023-04-03T22:36:40;25.50;44.90
63371;DHT22;49504;48.336;14.472;2023-04-03T22:40:02;25.50;45.00
63371;DHT22;49504;48.336;14.472;2023-04-03T22:43:25;25.50;45.00
63371;DHT22;49504;48.336;14.472;2023-04-03T22:46:47;25.50;45.20
63371;DHT22;49504;48.336;14.472;2023-04-03T22:50:09;25.50;45.00
63371;DHT22;49504;48.336;14.472;2023-04-03T22:53:30;25.50;45.00
63371;DHT22;49504;48.336;14.472;2023-04-03T22:56:51;25.50;45.00
63371;DHT22;49504;48.336;14.472;2023-04-03T23:00:15;25.50;45.00
63371;DHT22;49504;48.336;14.472;2023-04-03T23:03:38;25.50;45.00
63371;DHT22;49504;48.336;14.472;2023-04-03T23:07:00;25.50;45.10
63371;DHT22;49504;48.336;14.472;2023-04-03T23:10:21;25.50;45.10
63371;DHT22;49504;48.336;14.472;2023-04-03T23:13:42;25.50;45.10
63371;DHT22;49504;48.336;14.472;2023-04-03T23:17:05;25.50;45.10
63371;DHT22;49504;48.336;14.472;2023-04-03T23:20:26;25.50;45.10
63371;DHT22;49504;48.336;14.472;2023-04-03T23:23:47;25.50;45.10
63371;DHT22;49504;48.336;14.472;2023-04-03T23:27:08;25.50;45.10
63371;DHT22;49504;48.336;14.472;2023-04-03T23:30:29;25.50;45.10
63371;DHT22;49504;48.336;14.472;2023-04-03T23:33:51;25.50;45.80
63371;DHT22;49504;48.336;14.472;2023-04-03T23:37:12;25.50;45.10
63371;DHT22;49504;48.336;14.472;2023-04-03T23:40:33;25.50;45.10
63371;DHT22;49504;48.336;14.472;2023-04-03T23:43:55;25.50;45.10
63371;DHT22;49504;48.336;14.472;2023-04-03T23:47:16;25.50;45.10
63371;DHT22;49504;48.336;14.472;2023-04-03T23:50:38;25.50;45.10
63371;DHT22;49504;48.336;14.472;2023-04-03T23:53:59;25.40;45.10
63371;DHT22;49504;48.336;14.472;2023-04-03T23:57:20;25.50;45.10
